Time;durP1;ratioP1;P1;durP2;ratioP2;P2;SDS_P1;SDS_P2;PMS_P1;PMS_P2;Temp;Humidity;BMP_temperature;BMP_pressure;BME280_temperature;BME280_humidity;BME280_pressure;Samples;Min_cycle;Max_cycle;Signal;HPM_P1;HPM_P2
2022/03/15 00:00:28;;;;;;;13.57;4.50;;;9.60;99.90;;;;;;5015404;28;20367;-63
2022/03/15 00:02:55;;;;;;;20.50;4.78;;;9.50;99.90;;;;;;5016174;28;20057;-63
2022/03/15 00:05:21;;;;;;;12.20;5.00;;;9.50;99.90;;;;;;5019241;28;20033;-62
2022/03/15 00:07:47;;;;;;;12.95;4.20;;;9.50;99.90;;;;;;5016419;28;20096;-62
2022/03/15 00:10:14;;;;;;;13.48;4.32;;;9.40;99.90;;;;;;5017408;28;20029;-64
2022/03/15 00:12:40;;;;;;;13.45;4.70;;;9.40;99.90;;;;;;5012602;28;20060;-64
2022/03/15 00:15:08;;;;;;;13.93;4.57;;;9.40;99.90;;;;;;5009581;28;20036;-63
2022/03/15 00:17:44;;;;;;;15.60;4.40;;;9.40;99.90;;;;;;5002794;28;20378;-64
2022/03/15 00:20:14;;;;;;;12.98;4.70;;;9.30;99.90;;;;;;5011687;28;20073;-63
2022/03/15 00:22:41;;;;;;;12.73;5.15;;;9.30;99.90;;;;;;5016618;28;20033;-62
2022/03/15 00:25:10;;;;;;;16.20;5.43;;;9.30;99.90;;;;;;5010025;28;20394;-64
2022/03/15 00:27:36;;;;;;;16.35;5.05;;;9.30;99.90;;;;;;5016241;28;20046;-64
2022/03/15 00:30:05;;;;;;;13.95;4.72;;;9.30;99.90;;;;;;5019769;28;20032;-63
2022/03/15 00:32:31;;;;;;;10.18;4.50;;;9.30;99.90;;;;;;5032034;28;20022;-62
2022/03/15 00:34:57;;;;;;;13.88;5.43;;;9.40;99.90;;;;;;5028000;28;20087;-65
2022/03/15 00:37:22;;;;;;;15.32;5.57;;;9.40;99.90;;;;;;5018832;28;20034;-65
2022/03/15 00:39:49;;;;;;;14.63;4.82;;;9.40;99.90;;;;;;5018526;28;20382;-64
2022/03/15 00:42:15;;;;;;;15.25;6.05;;;9.40;99.90;;;;;;5013819;28;20018;-63
2022/03/15 00:44:40;;;;;;;14.32;5.20;;;9.30;99.90;;;;;;5006334;28;20034;-66
2022/03/15 00:47:06;;;;;;;13.77;4.93;;;9.30;99.90;;;;;;5006552;28;20053;-64
2022/03/15 00:49:32;;;;;;;20.52;7.15;;;9.20;99.90;;;;;;5006842;28;20034;-65
2022/03/15 00:51:58;;;;;;;19.30;5.68;;;9.20;99.90;;;;;;5017731;28;20021;-65
2022/03/15 00:54:23;;;;;;;16.88;5.70;;;9.20;99.90;;;;;;5026001;28;20104;-63
2022/03/15 00:56:49;;;;;;;15.00;5.55;;;9.10;99.90;;;;;;5023830;28;20381;-63
2022/03/15 00:59:15;;;;;;;11.85;5.43;;;9.10;99.90;;;;;;5028906;28;20038;-65
2022/03/15 01:01:41;;;;;;;14.82;7.05;;;9.00;99.90;;;;;;5022289;28;20034;-62
2022/03/15 01:04:07;;;;;;;16.48;5.78;;;9.00;99.90;;;;;;5022455;28;20033;-61
2022/03/15 01:06:34;;;;;;;16.80;5.50;;;9.00;99.90;;;;;;5032055;28;20183;-66
2022/03/15 01:09:01;;;;;;;15.43;5.65;;;9.00;99.90;;;;;;5017075;28;20038;-64
2022/03/15 01:11:26;;;;;;;15.05;5.18;;;9.00;99.90;;;;;;5029632;28;20525;-66
2022/03/15 01:13:52;;;;;;;14.98;5.75;;;9.10;99.90;;;;;;5019502;28;20152;-64
2022/03/15 01:16:18;;;;;;;15.23;5.40;;;9.10;99.90;;;;;;5028092;28;20509;-62
2022/03/15 01:18:44;;;;;;;17.23;5.30;;;9.10;99.90;;;;;;5018234;28;20105;-64
2022/03/15 01:21:13;;;;;;;11.45;4.55;;;9.10;99.90;;;;;;5014452;28;20029;-65
2022/03/15 01:23:40;;;;;;;14.43;5.25;;;9.10;99.90;;;;;;5008660;28;20049;-62
2022/03/15 01:26:06;;;;;;;15.52;5.18;;;9.20;99.90;;;;;;5019795;28;20469;-64
2022/03/15 01:28:31;;;;;;;11.68;5.40;;;9.20;99.90;;;;;;5013564;28;20112;-66
2022/03/15 01:30:57;;;;;;;18.35;5.30;;;9.30;99.90;;;;;;5014618;28;20073;-63
2022/03/15 01:33:23;;;;;;;13.63;5.38;;;9.30;99.90;;;;;;5015891;28;20398;-62
2022/03/15 01:35:48;;;;;;;18.83;6.10;;;9.40;99.90;;;;;;5029681;28;20104;-64
2022/03/15 01:38:14;;;;;;;17.20;5.63;;;9.50;99.90;;;;;;5029786;28;20147;-63
2022/03/15 01:40:40;;;;;;;14.85;6.50;;;9.50;99.90;;;;;;5029976;28;20034;-65
2022/03/15 01:43:05;;;;;;;14.57;6.50;;;9.50;99.90;;;;;;5014206;28;20038;-63
2022/03/15 01:45:37;;;;;;;14.38;6.40;;;9.50;99.90;;;;;;5032275;28;20033;-64
2022/03/15 01:48:03;;;;;;;17.92;7.18;;;9.60;99.90;;;;;;5004514;28;20116;-63
2022/03/15 01:50:30;;;;;;;20.20;6.57;;;9.60;99.90;;;;;;5021633;28;20065;-62
2022/03/15 01:52:56;;;;;;;18.95;6.95;;;9.60;99.90;;;;;;5017532;28;20036;-64
2022/03/15 01:55:21;;;;;;;18.92;7.00;;;9.60;99.90;;;;;;5028111;28;20053;-64
2022/03/15 01:57:47;;;;;;;15.20;6.30;;;9.50;99.90;;;;;;5013488;28;20064;-63
2022/03/15 02:00:14;;;;;;;18.02;8.10;;;9.40;99.90;;;;;;5013873;28;20030;-64
2022/03/15 02:02:40;;;;;;;17.38;6.47;;;9.40;99.90;;;;;;5014394;28;20486;-62
2022/03/15 02:05:06;;;;;;;15.05;6.55;;;9.30;99.90;;;;;;5016775;28;20105;-63
2022/03/15 02:07:32;;;;;;;16.98;6.43;;;9.20;99.90;;;;;;5022782;28;20536;-65
2022/03/15 02:09:58;;;;;;;22.63;7.20;;;9.10;99.90;;;;;;5018245;28;20033;-63
2022/03/15 02:12:23;;;;;;;18.48;7.32;;;9.00;99.90;;;;;;5021885;28;20435;-66
2022/03/15 02:14:49;;;;;;;18.08;7.10;;;8.90;99.90;;;;;;5014051;28;20029;-63
2022/03/15 02:17:15;;;;;;;19.48;7.28;;;8.90;99.90;;;;;;5012686;28;20045;-63
2022/03/15 02:19:42;;;;;;;17.85;7.03;;;8.80;99.90;;;;;;5022066;28;20026;-66
2022/03/15 02:22:08;;;;;;;17.52;6.38;;;8.80;99.90;;;;;;5015856;28;20061;-63
2022/03/15 02:24:34;;;;;;;16.90;6.72;;;8.70;99.90;;;;;;5019965;28;20050;-65
2022/03/15 02:27:01;;;;;;;14.55;6.30;;;8.60;99.90;;;;;;5023761;28;20410;-62
2022/03/15 02:29:27;;;;;;;13.25;6.18;;;8.60;99.90;;;;;;5015331;28;20600;-63
2022/03/15 02:31:53;;;;;;;18.85;6.68;;;8.50;99.90;;;;;;5014080;28;20101;-62
2022/03/15 02:34:18;;;;;;;17.30;6.03;;;8.40;99.90;;;;;;5015508;28;20032;-63
2022/03/15 02:36:44;;;;;;;17.42;5.82;;;8.40;99.90;;;;;;5013923;28;20396;-64
2022/03/15 02:39:10;;;;;;;19.20;6.50;;;8.40;99.90;;;;;;5018450;28;20475;-66
2022/03/15 02:41:36;;;;;;;12.18;5.95;;;8.40;99.90;;;;;;5019238;28;20472;-66
2022/03/15 02:44:02;;;;;;;15.88;5.72;;;8.30;99.90;;;;;;5020591;28;20100;-64
2022/03/15 02:46:32;;;;;;;12.43;5.72;;;8.30;99.90;;;;;;5021188;28;20072;-65
2022/03/15 02:48:58;;;;;;;15.45;6.85;;;8.30;99.90;;;;;;5027344;28;20083;-66
2022/03/15 02:51:24;;;;;;;13.68;6.05;;;8.20;99.90;;;;;;5015833;28;20038;-62
2022/03/15 02:53:52;;;;;;;21.05;6.45;;;8.20;99.90;;;;;;5031629;28;20025;-65
2022/03/15 02:56:19;;;;;;;21.20;6.25;;;8.20;99.90;;;;;;5022418;28;20053;-64
2022/03/15 02:58:44;;;;;;;15.90;6.28;;;8.10;99.90;;;;;;5016766;28;20121;-62
2022/03/15 03:01:10;;;;;;;15.48;6.07;;;8.20;99.90;;;;;;5028292;28;20037;-62
2022/03/15 03:03:36;;;;;;;17.13;6.20;;;8.10;99.90;;;;;;5042954;28;20049;-66
2022/03/15 03:06:02;;;;;;;14.88;6.10;;;8.10;99.90;;;;;;5019792;28;20485;-65
2022/03/15 03:08:30;;;;;;;13.82;6.18;;;8.20;99.90;;;;;;5023150;28;20385;-62
2022/03/15 03:10:57;;;;;;;17.48;6.07;;;8.20;99.90;;;;;;5029616;28;20065;-66
2022/03/15 03:13:26;;;;;;;16.77;5.75;;;8.20;99.90;;;;;;5025196;28;20037;-64
2022/03/15 03:15:56;;;;;;;16.95;5.82;;;8.20;99.90;;;;;;5018230;28;20025;-66
2022/03/15 03:18:27;;;;;;;15.27;6.00;;;8.30;99.90;;;;;;5020942;28;20029;-63
2022/03/15 03:20:53;;;;;;;18.95;7.35;;;8.30;99.90;;;;;;5018561;28;20020;-66
2022/03/15 03:23:18;;;;;;;20.35;5.82;;;8.30;99.90;;;;;;5014019;28;20030;-64
2022/03/15 03:25:44;;;;;;;16.15;6.13;;;8.40;99.90;;;;;;5019898;28;20031;-62
2022/03/15 03:28:13;;;;;;;16.33;7.10;;;8.40;99.90;;;;;;5019114;28;20432;-66
2022/03/15 03:30:41;;;;;;;16.08;6.63;;;8.40;99.90;;;;;;5021341;28;20034;-64
2022/03/15 03:33:06;;;;;;;17.20;7.45;;;8.40;99.90;;;;;;5017068;28;20145;-64
2022/03/15 03:35:32;;;;;;;17.92;7.82;;;8.40;99.90;;;;;;5016816;28;20496;-65
2022/03/15 03:37:57;;;;;;;19.77;7.72;;;8.40;99.90;;;;;;5025111;28;20471;-62
2022/03/15 03:40:23;;;;;;;19.92;7.70;;;8.40;99.90;;;;;;5017268;28;20038;-65
2022/03/15 03:42:49;;;;;;;22.83;8.88;;;8.40;99.90;;;;;;5013254;28;20033;-64
2022/03/15 03:45:14;;;;;;;23.17;10.15;;;8.40;99.90;;;;;;5027751;28;20030;-63
2022/03/15 03:47:40;;;;;;;25.27;10.82;;;8.40;99.90;;;;;;5021859;28;20053;-66
2022/03/15 03:50:08;;;;;;;20.08;9.25;;;8.30;99.90;;;;;;5022345;28;20033;-66
2022/03/15 03:52:33;;;;;;;24.48;9.45;;;8.30;99.90;;;;;;5023521;28;20034;-66
2022/03/15 03:55:00;;;;;;;25.77;9.23;;;8.30;99.90;;;;;;5026832;28;20096;-63
2022/03/15 03:57:26;;;;;;;25.40;9.93;;;8.30;99.90;;;;;;5026276;28;20029;-63
2022/03/15 03:59:51;;;;;;;23.73;10.88;;;8.30;99.90;;;;;;5018114;28;20021;-62
2022/03/15 04:02:17;;;;;;;28.63;10.60;;;8.30;99.90;;;;;;5024743;28;20034;-65
2022/03/15 04:04:43;;;;;;;24.77;12.13;;;8.40;99.90;;;;;;5027311;28;20030;-65
2022/03/15 04:07:11;;;;;;;29.05;11.07;;;8.40;99.90;;;;;;5029763;28;20045;-67
2022/03/15 04:09:37;;;;;;;26.95;10.88;;;8.40;99.90;;;;;;5001125;28;20026;-66
2022/03/15 04:12:05;;;;;;;26.60;11.00;;;8.40;99.90;;;;;;5024748;28;20026;-65
2022/03/15 04:14:30;;;;;;;27.83;11.75;;;8.40;99.90;;;;;;5022764;28;20474;-63
2022/03/15 04:16:56;;;;;;;28.42;12.80;;;8.40;99.90;;;;;;5016106;28;20041;-63
2022/03/15 04:19:21;;;;;;;28.30;12.82;;;8.40;99.90;;;;;;5027764;28;20441;-62
2022/03/15 04:21:47;;;;;;;32.15;13.05;;;8.40;99.90;;;;;;5029835;28;20029;-63
2022/03/15 04:24:14;;;;;;;28.85;12.95;;;8.50;99.90;;;;;;5023750;28;20045;-62
2022/03/15 04:26:41;;;;;;;30.33;14.10;;;8.50;99.90;;;;;;5023992;28;20187;-63
2022/03/15 04:29:06;;;;;;;31.05;13.48;;;8.50;99.90;;;;;;5016756;28;20447;-63
2022/03/15 04:31:32;;;;;;;33.40;13.82;;;8.60;99.90;;;;;;5016827;28;20084;-63
2022/03/15 04:33:58;;;;;;;31.88;14.25;;;8.60;99.90;;;;;;5021779;28;20155;-62
2022/03/15 04:36:23;;;;;;;26.23;13.30;;;8.60;99.90;;;;;;5020809;28;20084;-63
2022/03/15 04:38:49;;;;;;;29.13;13.60;;;8.60;99.90;;;;;;5019106;28;20038;-63
2022/03/15 04:41:15;;;;;;;29.75;14.07;;;8.60;99.90;;;;;;5023734;28;20459;-63
2022/03/15 04:43:41;;;;;;;28.65;14.70;;;8.60;99.90;;;;;;5020544;28;20083;-63
2022/03/15 04:46:07;;;;;;;31.85;14.32;;;8.60;99.90;;;;;;5022520;28;20500;-63
2022/03/15 04:48:33;;;;;;;30.65;14.50;;;8.60;99.90;;;;;;5025002;28;20102;-63
2022/03/15 04:50:58;;;;;;;33.42;14.80;;;8.70;99.90;;;;;;5021443;28;20455;-63
2022/03/15 04:53:24;;;;;;;33.38;15.48;;;8.70;99.90;;;;;;5021808;28;20033;-62
2022/03/15 04:55:50;;;;;;;33.78;15.63;;;8.70;99.90;;;;;;5021631;28;20087;-62
2022/03/15 04:58:15;;;;;;;31.60;14.43;;;8.70;99.90;;;;;;5019789;28;20033;-62
2022/03/15 05:00:41;;;;;;;32.97;15.05;;;8.70;99.90;;;;;;5015127;28;20026;-63
2022/03/15 05:03:07;;;;;;;33.53;15.05;;;8.70;99.90;;;;;;5013494;28;20614;-63
2022/03/15 05:05:32;;;;;;;38.60;16.05;;;8.80;99.90;;;;;;5014541;28;20030;-63
2022/03/15 05:07:58;;;;;;;32.22;14.20;;;8.80;99.90;;;;;;5014130;28;20109;-63
2022/03/15 05:13:07;;;;;;;30.33;15.02;;;8.80;99.90;;;;;;5014796;28;20037;-63
2022/03/15 05:15:33;;;;;;;29.30;15.20;;;8.80;99.90;;;;;;5014065;28;20034;-63
2022/03/15 05:18:01;;;;;;;38.63;15.23;;;8.80;99.90;;;;;;5014400;28;20058;-63
2022/03/15 05:20:28;;;;;;;33.88;15.15;;;8.90;99.90;;;;;;5012750;28;20646;-62
2022/03/15 05:22:53;;;;;;;29.95;14.15;;;8.90;99.90;;;;;;5014138;28;20018;-63
2022/03/15 05:25:19;;;;;;;30.63;15.15;;;8.90;99.90;;;;;;5015390;28;20103;-62
2022/03/15 05:27:44;;;;;;;31.30;16.05;;;8.90;99.90;;;;;;5014014;28;20363;-62
2022/03/15 05:30:10;;;;;;;34.53;16.02;;;8.90;99.90;;;;;;5014685;28;20073;-63
2022/03/15 05:32:36;;;;;;;30.88;15.45;;;8.90;99.90;;;;;;5014333;28;20036;-63
2022/03/15 05:35:02;;;;;;;33.15;15.50;;;8.80;99.90;;;;;;5014543;28;20029;-63
2022/03/15 05:37:28;;;;;;;35.22;15.90;;;8.80;99.90;;;;;;5014444;28;20060;-62
2022/03/15 05:39:54;;;;;;;31.67;16.40;;;8.80;99.90;;;;;;5009109;28;20410;-62
2022/03/15 05:42:19;;;;;;;31.23;16.17;;;8.80;99.90;;;;;;5014297;28;20038;-63
2022/03/15 05:44:46;;;;;;;35.35;15.57;;;8.80;99.90;;;;;;5015313;28;20041;-62
2022/03/15 05:47:11;;;;;;;36.30;16.63;;;8.80;99.90;;;;;;5014191;28;20041;-62
2022/03/15 05:49:37;;;;;;;32.00;15.77;;;8.80;99.90;;;;;;5014740;28;20033;-63
2022/03/15 05:52:03;;;;;;;31.27;15.07;;;8.80;99.90;;;;;;5014376;28;20030;-62
2022/03/15 05:54:29;;;;;;;33.33;18.48;;;8.80;99.90;;;;;;5014154;28;20113;-62
2022/03/15 05:56:55;;;;;;;31.77;15.60;;;8.70;99.90;;;;;;5012840;28;20030;-63
2022/03/15 05:59:20;;;;;;;32.88;15.43;;;8.70;99.90;;;;;;5014027;28;20202;-62
2022/03/15 06:01:46;;;;;;;34.88;16.40;;;8.70;99.90;;;;;;5014388;28;20065;-62
2022/03/15 06:04:12;;;;;;;35.90;15.95;;;8.70;99.90;;;;;;5013383;28;20466;-63
2022/03/15 06:06:37;;;;;;;35.63;17.20;;;8.70;99.90;;;;;;5014517;28;20072;-63
2022/03/15 06:09:04;;;;;;;36.70;17.00;;;8.70;99.90;;;;;;5013818;28;20030;-62
2022/03/15 06:11:32;;;;;;;36.72;16.58;;;8.70;99.90;;;;;;5014275;28;20030;-63
2022/03/15 06:13:58;;;;;;;31.17;15.85;;;8.70;99.90;;;;;;5013724;28;20029;-62
2022/03/15 06:16:24;;;;;;;35.15;16.88;;;8.70;99.90;;;;;;5014177;28;20101;-63
2022/03/15 06:18:50;;;;;;;31.40;15.32;;;8.70;99.90;;;;;;5013485;28;20492;-62
2022/03/15 06:21:19;;;;;;;33.70;16.88;;;8.80;99.90;;;;;;5029332;28;20117;-63
2022/03/15 06:23:44;;;;;;;31.73;16.13;;;8.80;99.90;;;;;;5013269;28;20478;-63
2022/03/15 06:26:10;;;;;;;33.65;16.17;;;8.90;99.90;;;;;;5013436;28;20038;-63
2022/03/15 06:28:36;;;;;;;34.28;16.40;;;8.90;99.90;;;;;;5024064;28;20053;-62
2022/03/15 06:31:02;;;;;;;33.72;16.52;;;8.90;99.90;;;;;;5018209;28;20502;-63
2022/03/15 06:33:28;;;;;;;36.08;16.35;;;8.90;99.90;;;;;;5013371;28;20091;-62
2022/03/15 06:35:54;;;;;;;33.97;16.33;;;8.90;99.90;;;;;;5013185;28;20029;-63
2022/03/15 06:38:20;;;;;;;32.25;16.35;;;9.00;99.90;;;;;;5008996;28;20118;-63
2022/03/15 06:40:47;;;;;;;31.08;15.80;;;9.00;99.90;;;;;;5008177;28;20026;-63
2022/03/15 06:43:13;;;;;;;34.60;15.48;;;9.10;99.90;;;;;;5012133;28;20049;-63
2022/03/15 06:45:42;;;;;;;30.58;14.52;;;9.10;99.90;;;;;;5012323;28;20018;-63
2022/03/15 06:48:08;;;;;;;38.75;14.57;;;9.10;99.90;;;;;;5013096;28;20108;-63
2022/03/15 06:50:35;;;;;;;36.28;15.15;;;9.10;99.90;;;;;;5013446;28;20421;-63
2022/03/15 06:53:00;;;;;;;31.25;13.90;;;9.20;99.90;;;;;;5012012;28;20097;-65
2022/03/15 06:55:26;;;;;;;35.45;17.38;;;9.20;99.90;;;;;;5013408;28;20465;-66
2022/03/15 06:57:52;;;;;;;30.35;15.45;;;9.30;99.90;;;;;;5011623;28;20083;-63
2022/03/15 07:00:18;;;;;;;28.58;14.10;;;9.30;99.90;;;;;;5012434;28;20041;-66
2022/03/15 07:02:43;;;;;;;30.60;14.32;;;9.30;99.90;;;;;;5013420;28;20030;-65
2022/03/15 07:05:10;;;;;;;31.40;14.80;;;9.30;99.90;;;;;;5013351;28;20022;-63
2022/03/15 07:07:36;;;;;;;35.72;14.63;;;9.30;99.90;;;;;;5012855;28;20497;-66
2022/03/15 07:10:05;;;;;;;33.25;16.02;;;9.30;99.90;;;;;;5012535;28;20038;-65
2022/03/15 07:12:31;;;;;;;29.85;14.13;;;9.30;99.90;;;;;;5013077;28;20045;-63
2022/03/15 07:14:57;;;;;;;30.55;15.82;;;9.30;99.90;;;;;;5013754;28;20026;-63
2022/03/15 07:17:23;;;;;;;37.10;15.30;;;9.30;99.90;;;;;;5013182;28;20026;-63
2022/03/15 07:19:48;;;;;;;36.90;15.40;;;9.40;99.90;;;;;;5013539;28;20033;-67
2022/03/15 07:22:14;;;;;;;34.67;15.00;;;9.50;99.90;;;;;;5012939;28;20025;-65
2022/03/15 07:24:39;;;;;;;32.60;14.75;;;9.60;99.90;;;;;;5011375;28;20046;-66
2022/03/15 07:27:05;;;;;;;38.38;16.08;;;9.70;99.90;;;;;;5014633;28;20092;-63
2022/03/15 07:29:31;;;;;;;32.13;15.98;;;9.80;99.90;;;;;;5016355;28;20125;-65
2022/03/15 07:31:56;;;;;;;30.25;15.40;;;9.90;99.90;;;;;;5016237;28;20401;-63
2022/03/15 07:34:22;;;;;;;31.85;16.23;;;9.90;99.90;;;;;;5014971;28;20084;-63
2022/03/15 07:36:48;;;;;;;26.95;14.25;;;10.00;99.90;;;;;;5016932;28;20038;-63
2022/03/15 07:39:13;;;;;;;28.48;15.60;;;10.10;99.90;;;;;;5016416;28;20061;-65
2022/03/15 07:41:40;;;;;;;36.00;16.08;;;10.20;99.90;;;;;;5016967;28;20037;-65
2022/03/15 07:44:09;;;;;;;29.17;15.18;;;10.20;99.90;;;;;;5015312;28;20421;-65
2022/03/15 07:46:36;;;;;;;32.00;16.83;;;10.30;99.90;;;;;;5016579;28;20437;-64
2022/03/15 07:49:02;;;;;;;32.83;16.52;;;10.30;99.90;;;;;;5018578;28;20483;-64
2022/03/15 07:51:28;;;;;;;34.67;16.35;;;10.40;99.90;;;;;;5016585;28;20021;-65
2022/03/15 07:53:54;;;;;;;34.58;16.70;;;10.50;99.90;;;;;;5016280;28;20432;-63
2022/03/15 07:56:20;;;;;;;32.22;15.25;;;10.60;99.90;;;;;;5016561;28;20126;-65
2022/03/15 07:58:46;;;;;;;32.15;16.50;;;10.70;99.90;;;;;;5012316;28;20041;-65
2022/03/15 08:01:11;;;;;;;31.52;16.15;;;10.70;99.90;;;;;;5014424;28;20474;-65
2022/03/15 08:03:37;;;;;;;32.85;16.67;;;10.70;99.90;;;;;;5014595;28;20116;-64
2022/03/15 08:06:03;;;;;;;27.08;14.65;;;10.80;99.90;;;;;;5014904;28;20079;-63
2022/03/15 08:08:28;;;;;;;32.50;16.27;;;10.90;99.90;;;;;;5013997;28;20108;-63
2022/03/15 08:10:54;;;;;;;31.55;15.48;;;10.90;99.90;;;;;;5013891;28;20033;-63
2022/03/15 08:13:20;;;;;;;31.38;15.02;;;11.00;99.90;;;;;;5011772;28;20144;-62
2022/03/15 08:15:45;;;;;;;30.20;14.13;;;11.10;99.90;;;;;;5014454;28;20030;-63
2022/03/15 08:18:12;;;;;;;28.27;13.80;;;11.20;99.90;;;;;;5015087;28;20013;-62
2022/03/15 08:20:41;;;;;;;26.73;14.75;;;11.30;99.90;;;;;;5015446;28;20045;-62
2022/03/15 08:23:10;;;;;;;28.67;14.68;;;11.30;99.90;;;;;;5013648;28;20524;-63
2022/03/15 08:25:37;;;;;;;31.80;15.10;;;11.40;99.90;;;;;;5015006;28;20481;-63
2022/03/15 08:28:03;;;;;;;31.33;15.40;;;11.60;99.90;;;;;;5015572;28;20046;-62
2022/03/15 08:30:28;;;;;;;24.38;13.48;;;11.70;99.90;;;;;;5015490;28;20021;-62
2022/03/15 08:32:54;;;;;;;27.08;13.32;;;11.90;99.90;;;;;;5014865;28;20135;-62
2022/03/15 08:35:23;;;;;;;28.95;12.38;;;12.10;99.90;;;;;;5014245;28;20543;-62
2022/03/15 08:37:53;;;;;;;27.52;12.18;;;12.50;99.90;;;;;;5027906;28;20041;-62
2022/03/15 08:40:20;;;;;;;25.08;11.38;;;12.80;99.90;;;;;;5012949;28;20104;-62
2022/03/15 08:42:46;;;;;;;25.98;11.93;;;13.20;99.90;;;;;;4998465;28;20117;-63
2022/03/15 08:45:12;;;;;;;23.05;10.88;;;13.60;99.90;;;;;;5015239;28;20121;-62
2022/03/15 08:47:38;;;;;;;27.98;11.68;;;14.00;99.90;;;;;;5015591;28;20057;-62
2022/03/15 08:50:06;;;;;;;23.02;10.25;;;14.40;99.90;;;;;;5015658;28;20101;-62
2022/03/15 08:52:32;;;;;;;27.05;10.63;;;15.10;99.90;;;;;;5015432;28;20088;-62
2022/03/15 08:54:57;;;;;;;23.98;12.00;;;15.60;99.90;;;;;;5015096;28;20033;-62
2022/03/15 08:57:23;;;;;;;25.23;11.50;;;16.00;99.90;;;;;;5022300;28;20033;-62
2022/03/15 08:59:49;;;;;;;26.55;10.93;;;16.20;99.90;;;;;;5017522;28;20044;-62
2022/03/15 09:02:17;;;;;;;26.65;10.65;;;16.30;99.90;;;;;;5014337;28;20061;-62
2022/03/15 09:04:43;;;;;;;26.85;11.13;;;16.40;99.90;;;;;;5015038;28;20026;-62
2022/03/15 09:07:08;;;;;;;25.58;10.25;;;16.50;99.90;;;;;;5013193;28;20115;-62
2022/03/15 09:09:34;;;;;;;22.13;10.73;;;16.50;99.90;;;;;;5008227;28;20429;-61
2022/03/15 09:12:00;;;;;;;23.10;10.82;;;16.60;99.90;;;;;;5013565;28;20125;-62
2022/03/15 09:14:25;;;;;;;23.67;9.55;;;16.70;99.90;;;;;;5015068;28;20034;-62
2022/03/15 09:16:51;;;;;;;26.30;10.77;;;16.70;99.90;;;;;;5014510;28;20075;-62
2022/03/15 09:19:16;;;;;;;21.10;10.00;;;17.00;99.90;;;;;;5014311;28;20129;-62
2022/03/15 09:21:43;;;;;;;21.83;9.57;;;17.30;99.90;;;;;;5014917;28;20109;-62
2022/03/15 09:24:10;;;;;;;23.65;10.27;;;18.00;99.50;;;;;;5014863;28;20478;-62
2022/03/15 09:26:36;;;;;;;19.65;9.65;;;18.70;98.10;;;;;;5014811;28;20030;-62
2022/03/15 09:29:02;;;;;;;19.35;8.57;;;19.70;97.60;;;;;;5014960;28;20040;-62
2022/03/15 09:31:28;;;;;;;15.82;8.40;;;21.10;95.70;;;;;;5014877;28;20471;-62
2022/03/15 09:33:53;;;;;;;23.80;9.13;;;22.80;93.60;;;;;;5014381;28;20045;-62
2022/03/15 09:36:19;;;;;;;18.80;8.10;;;24.00;91.60;;;;;;5014747;28;20030;-62
2022/03/15 09:38:45;;;;;;;15.23;8.32;;;24.90;88.50;;;;;;5014994;28;20061;-63
2022/03/15 09:41:10;;;;;;;18.58;8.30;;;25.50;86.00;;;;;;5014804;28;20017;-63
2022/03/15 09:43:40;;;;;;;18.00;6.25;;;26.30;82.00;;;;;;5015113;28;20022;-63
2022/03/15 09:46:08;;;;;;;20.42;7.72;;;26.80;78.40;;;;;;5014793;28;20041;-63
2022/03/15 09:48:35;;;;;;;19.23;7.72;;;26.40;76.80;;;;;;5013067;28;20069;-63
2022/03/15 09:51:04;;;;;;;18.13;7.47;;;25.80;76.40;;;;;;5013151;28;20026;-63
2022/03/15 09:53:33;;;;;;;19.58;8.10;;;25.30;76.50;;;;;;5014570;28;20065;-63
2022/03/15 09:55:58;;;;;;;16.38;7.95;;;25.30;76.10;;;;;;5014453;28;20022;-63
2022/03/15 09:58:24;;;;;;;19.38;7.90;;;25.60;75.70;;;;;;5014382;28;20048;-63
2022/03/15 10:00:56;;;;;;;19.50;7.60;;;26.10;74.90;;;;;;5014107;28;20030;-63
2022/03/15 10:03:22;;;;;;;16.08;6.68;;;26.40;73.30;;;;;;5014136;28;20097;-63
2022/03/15 10:05:51;;;;;;;15.75;7.65;;;26.60;71.40;;;;;;5014122;28;20080;-63
2022/03/15 10:08:18;;;;;;;17.65;7.90;;;26.50;71.50;;;;;;5014159;28;20096;-63
2022/03/15 10:10:48;;;;;;;18.52;8.38;;;26.50;71.30;;;;;;5014588;28;20029;-64
2022/03/15 10:13:15;;;;;;;17.23;7.47;;;26.60;71.30;;;;;;5014085;28;20092;-64
2022/03/15 10:15:51;;;;;;;20.10;8.50;;;26.90;69.70;;;;;;5014091;28;20114;-63
2022/03/15 10:18:18;;;;;;;22.48;9.60;;;26.80;69.60;;;;;;5012995;28;20505;-63
2022/03/15 10:20:44;;;;;;;17.10;8.70;;;26.80;70.30;;;;;;5013876;28;20057;-63
2022/03/15 10:23:10;;;;;;;19.80;9.55;;;27.20;69.80;;;;;;5012341;28;20053;-63
2022/03/15 10:25:37;;;;;;;18.80;9.43;;;27.40;68.50;;;;;;5011276;28;20029;-63
2022/03/15 10:28:06;;;;;;;21.27;10.05;;;27.30;68.20;;;;;;5013475;28;20061;-63
2022/03/15 10:30:34;;;;;;;19.48;9.18;;;27.30;68.80;;;;;;5012605;28;20433;-63
2022/03/15 10:33:00;;;;;;;17.27;9.23;;;27.40;67.30;;;;;;5013484;28;20455;-63
2022/03/15 10:35:34;;;;;;;16.92;9.13;;;27.70;67.80;;;;;;5013619;28;20057;-64
2022/03/15 10:38:00;;;;;;;19.65;8.52;;;28.10;66.80;;;;;;5013904;28;20026;-63
2022/03/15 10:40:40;;;;;;;19.50;8.70;;;28.10;66.10;;;;;;5013885;28;20041;-63
2022/03/15 10:43:19;;;;;;;15.95;7.13;;;28.50;65.60;;;;;;5014190;28;20076;-63
2022/03/15 10:45:56;;;;;;;18.17;7.32;;;29.00;63.80;;;;;;5013817;28;20026;-63
2022/03/15 10:48:29;;;;;;;19.50;7.90;;;29.10;63.60;;;;;;5012060;28;20041;-63
2022/03/15 10:50:59;;;;;;;18.60;7.68;;;29.20;63.10;;;;;;5013587;28;20052;-64
2022/03/15 10:53:29;;;;;;;14.55;6.53;;;29.20;62.10;;;;;;5013514;28;20022;-63
2022/03/15 10:56:17;;;;;;;13.93;6.05;;;29.00;61.30;;;;;;5013575;28;20549;-64
2022/03/15 10:59:01;;;;;;;13.57;5.72;;;28.70;60.50;;;;;;5013404;28;20033;-63
2022/03/15 11:01:34;;;;;;;13.10;4.93;;;28.40;60.70;;;;;;5012377;28;20105;-63
2022/03/15 11:04:06;;;;;;;12.18;4.45;;;28.20;59.70;;;;;;5013708;28;20029;-63
2022/03/15 11:06:41;;;;;;;;;;;27.80;59.30;;;;;;5010177;28;20030;-63
2022/03/15 11:09:27;;;;;;;14.77;5.20;;;27.70;59.30;;;;;;5013398;28;20011;-63
2022/03/15 11:12:06;;;;;;;10.45;4.40;;;27.70;59.60;;;;;;5013442;28;20030;-63
2022/03/15 11:14:54;;;;;;;10.68;3.35;;;27.90;59.40;;;;;;5012648;28;20034;-63
2022/03/15 11:17:25;;;;;;;9.10;3.17;;;28.10;57.90;;;;;;5009981;28;20022;-63
2022/03/15 11:19:52;;;;;;;6.05;3.00;;;28.10;58.30;;;;;;5011453;28;20025;-64
2022/03/15 11:22:22;;;;;;;7.03;2.58;;;28.10;57.40;;;;;;5013091;28;20022;-65
2022/03/15 11:25:11;;;;;;;9.85;3.30;;;27.90;57.00;;;;;;5012933;28;20042;-64
2022/03/15 11:27:40;;;;;;;9.45;3.45;;;27.60;57.10;;;;;;5013617;28;20116;-65
2022/03/15 11:30:08;;;;;;;8.85;2.75;;;27.80;57.90;;;;;;5013221;28;20458;-63
2022/03/15 11:32:34;;;;;;;7.57;3.45;;;27.90;56.60;;;;;;5012571;28;20034;-63
2022/03/15 11:35:01;;;;;;;8.80;3.22;;;27.60;57.30;;;;;;5007832;28;20113;-63
2022/03/15 11:37:26;;;;;;;8.73;3.33;;;27.60;57.30;;;;;;5012676;28;20029;-63
2022/03/15 11:39:53;;;;;;;11.85;3.50;;;27.60;56.80;;;;;;5013082;28;20030;-63
2022/03/15 11:42:19;;;;;;;6.60;2.95;;;27.10;57.50;;;;;;5012444;28;20030;-63
2022/03/15 11:45:02;;;;;;;9.82;3.75;;;26.70;57.30;;;;;;5011883;28;20116;-62
2022/03/15 11:47:56;;;;;;;9.23;3.30;;;26.50;57.80;;;;;;5013014;28;20206;-63
2022/03/15 11:50:28;;;;;;;6.53;2.70;;;26.70;58.00;;;;;;5013259;28;20052;-62
2022/03/15 11:53:11;;;;;;;8.80;2.75;;;26.20;57.30;;;;;;5013008;28;20030;-63
2022/03/15 11:55:41;;;;;;;8.20;2.40;;;25.30;58.20;;;;;;5010818;28;20022;-63
2022/03/15 11:58:09;;;;;;;9.13;3.30;;;25.00;58.40;;;;;;5012601;28;20030;-63
2022/03/15 12:00:36;;;;;;;10.05;3.30;;;25.00;58.40;;;;;;5012801;28;20029;-63
2022/03/15 12:03:06;;;;;;;8.02;2.45;;;24.90;59.10;;;;;;5013074;28;20052;-63
2022/03/15 12:05:51;;;;;;;10.32;2.83;;;25.00;58.70;;;;;;5013012;28;20034;-63
2022/03/15 12:08:23;;;;;;;5.70;2.15;;;25.20;58.70;;;;;;5013025;28;20057;-63
2022/03/15 12:10:56;;;;;;;7.13;2.00;;;25.60;58.10;;;;;;5011618;28;20026;-63
2022/03/15 12:13:43;;;;;;;8.45;2.22;;;25.60;57.50;;;;;;5009810;28;20470;-63
2022/03/15 12:16:14;;;;;;;8.65;2.55;;;25.50;58.00;;;;;;5019242;28;20021;-63
2022/03/15 12:18:51;;;;;;;8.57;2.75;;;25.50;57.40;;;;;;5026306;28;20041;-63
2022/03/15 12:21:17;;;;;;;7.43;2.30;;;25.40;57.50;;;;;;5008385;28;20033;-63
2022/03/15 12:23:47;;;;;;;6.13;2.67;;;25.20;57.50;;;;;;5019068;28;20393;-66
2022/03/15 12:26:31;;;;;;;9.82;2.80;;;25.10;57.90;;;;;;5014428;28;20128;-63
2022/03/15 12:29:07;;;;;;;9.50;3.38;;;25.00;58.60;;;;;;5019738;28;20049;-63
2022/03/15 12:31:40;;;;;;;7.30;2.90;;;25.10;58.10;;;;;;5014838;28;20144;-64
2022/03/15 12:34:10;;;;;;;6.22;3.05;;;25.60;57.80;;;;;;5027162;28;20064;-67
2022/03/15 12:36:48;;;;;;;8.90;2.88;;;26.00;58.00;;;;;;5022074;28;20156;-63
2022/03/15 12:39:19;;;;;;;8.43;2.60;;;26.60;57.30;;;;;;5014166;28;20474;-64
2022/03/15 12:41:47;;;;;;;8.13;2.17;;;27.00;55.60;;;;;;5029305;28;20116;-63
2022/03/15 12:44:14;;;;;;;9.48;2.13;;;27.10;55.30;;;;;;5022304;28;20029;-63